Time;durP1;ratioP1;P1;durP2;ratioP2;P2;SDS_P1;SDS_P2;PMS_P1;PMS_P2;Temp;Humidity;BMP_temperature;BMP_pressure;BME280_temperature;BME280_humidity;BME280_pressure;Samples;Min_cycle;Max_cycle;Signal;HPM_P1;HPM_P2
2023/08/02 00:02:24;;;;;;;;;;;;;;;15.44;100.00;100062.69;4989505;28;20373;-59
2023/08/02 00:04:50;;;;;;;;;;;;;;;15.44;100.00;100054.78;4984548;28;20053;-58
2023/08/02 00:07:15;;;;;;;;;;;;;;;15.42;100.00;100051.28;4988008;28;20012;-59
2023/08/02 00:09:40;;;;;;;;;;;;;;;15.40;99.78;100053.06;4987747;28;20397;-59
2023/08/02 00:12:06;;;;;;;;;;;;;;;15.35;100.00;100057.53;4989266;28;19914;-59
2023/08/02 00:14:31;;;;;;;;;;;;;;;15.32;100.00;100062.75;4986987;28;19913;-59
2023/08/02 00:16:56;;;;;;;;;;;;;;;15.28;100.00;100066.31;4990108;28;19917;-59
2023/08/02 00:19:22;;;;;;;;;;;;;;;15.24;100.00;100077.72;4988169;28;20357;-59
2023/08/02 00:21:50;;;;;;;;;;;;;;;15.23;100.00;100078.59;4989860;28;19922;-59
2023/08/02 00:24:15;;;;;;;;;;;;;;;15.20;100.00;100069.00;4990112;28;20415;-59
2023/08/02 00:26:40;;;;;;;;;;;;;;;15.18;100.00;100067.25;4988259;28;19917;-59
2023/08/02 00:29:05;;;;;;;;;;;;;;;15.16;100.00;100069.91;4991809;28;20710;-59
2023/08/02 00:31:31;;;;;;;;;;;;;;;15.15;100.00;100064.66;4986186;28;19996;-57
2023/08/02 00:33:56;;;;;;;;;;;;;;;15.14;100.00;100063.81;4989918;28;19921;-59
2023/08/02 00:36:21;;;;;;;;;;;;;;;15.15;100.00;100075.16;4990829;28;19917;-59
2023/08/02 00:38:46;;;;;;;;;;;;;;;15.12;100.00;100060.34;4991939;28;20320;-59
2023/08/02 00:41:12;;;;;;;;;;;;;;;15.11;100.00;100048.94;4989894;28;19921;-59
2023/08/02 00:43:50;;;;;;;;;;;;;;;15.10;100.00;100039.31;4989578;28;19918;-59
2023/08/02 00:46:17;;;;;;;;;;;;;;;15.08;100.00;100038.47;4988010;28;20133;-59
2023/08/02 00:48:43;;;;;;;;;;;;;;;15.08;100.00;100038.47;4988308;28;19968;-59
2023/08/02 00:51:12;;;;;;;;;;;;;;;15.08;100.00;100027.13;4985250;28;20388;-59
2023/08/02 00:53:37;;;;;;;;;;;;;;;15.08;100.00;100022.75;4988490;28;19924;-59
2023/08/02 00:56:03;;;;;;;;;;;;;;;15.08;100.00;100008.75;4990838;28;19918;-59
2023/08/02 00:58:28;;;;;;;;;;;;;;;15.09;100.00;100003.50;4987088;28;20343;-59
2023/08/02 01:00:53;;;;;;;;;;;;;;;15.10;100.00;100006.97;4989502;28;19912;-58
2023/08/02 01:03:19;;;;;;;;;;;;;;;15.11;100.00;100004.34;4985965;28;19914;-59
2023/08/02 01:05:49;;;;;;;;;;;;;;;15.12;100.00;100008.72;4988945;28;19925;-59
2023/08/02 01:08:19;;;;;;;;;;;;;;;15.15;100.00;100004.31;4988123;28;19913;-59
2023/08/02 01:11:02;;;;;;;;;;;;;;;15.13;100.00;100004.31;4988726;28;20056;-59
2023/08/02 01:13:29;;;;;;;;;;;;;;;15.15;100.00;100009.56;4988014;28;21104;-59
2023/08/02 01:15:55;;;;;;;;;;;;;;;15.16;100.00;100014.78;4989645;28;19953;-59
2023/08/02 01:18:20;;;;;;;;;;;;;;;15.19;100.00;100016.53;4991327;28;19964;-59
2023/08/02 01:20:45;;;;;;;;;;;;;;;15.21;100.00;100017.41;4987042;28;20450;-59
2023/08/02 01:23:11;;;;;;;;;;;;;;;15.23;100.00;100018.25;4986418;28;20365;-59
2023/08/02 01:25:38;;;;;;;;;;;;;;;15.25;100.00;100013.84;4990784;28;19945;-59
2023/08/02 01:28:05;;;;;;;;;;;;;;;15.24;100.00;100012.97;4986695;28;19917;-59
2023/08/02 01:30:33;;;;;;;;;;;;;;;15.24;100.00;99996.38;4987848;28;21656;-59
2023/08/02 01:32:58;;;;;;;;;;;;;;;15.25;100.00;100000.72;4985313;28;19948;-58
2023/08/02 01:35:24;;;;;;;;;;;;;;;15.28;100.00;100003.34;4987588;28;20459;-59
2023/08/02 01:37:49;;;;;;;;;;;;;;;15.29;100.00;99998.06;4991296;28;19924;-59
2023/08/02 01:40:14;;;;;;;;;;;;;;;15.31;100.00;99995.44;4986737;28;19913;-59
2023/08/02 01:42:39;;;;;;;;;;;;;;;15.32;100.00;99981.41;4988781;28;20385;-59
2023/08/02 01:45:05;;;;;;;;;;;;;;;15.32;100.00;99988.41;4987698;28;20000;-59
2023/08/02 01:47:30;;;;;;;;;;;;;;;15.32;100.00;99965.66;4989235;28;19913;-59
2023/08/02 01:49:55;;;;;;;;;;;;;;;15.35;100.00;99972.63;4989557;28;19925;-59
2023/08/02 01:52:21;;;;;;;;;;;;;;;15.36;100.00;99969.13;4990112;28;19929;-59
2023/08/02 01:54:46;;;;;;;;;;;;;;;15.36;100.00;99964.75;4985401;28;19914;-59
2023/08/02 01:57:11;;;;;;;;;;;;;;;15.37;100.00;99961.22;4990615;28;19988;-59
2023/08/02 01:59:36;;;;;;;;;;;;;;;15.38;100.00;99962.09;4987000;28;20242;-59
2023/08/02 02:02:02;;;;;;;;;;;;;;;15.39;100.00;99954.19;4988168;28;19914;-59
2023/08/02 02:04:27;;;;;;;;;;;;;;;15.38;100.00;99946.34;4985550;28;19921;-59
2023/08/02 02:06:52;;;;;;;;;;;;;;;15.38;100.00;99943.72;4987101;28;19987;-59
2023/08/02 02:09:17;;;;;;;;;;;;;;;15.38;100.00;99933.22;4988938;28;19922;-59
2023/08/02 02:11:43;;;;;;;;;;;;;;;15.36;100.00;99922.75;4989284;28;19925;-59
2023/08/02 02:14:09;;;;;;;;;;;;;;;15.35;100.00;99921.03;4987622;28;19927;-59
2023/08/02 02:16:34;;;;;;;;;;;;;;;15.34;100.00;99928.88;4988365;28;19917;-59
2023/08/02 02:18:59;;;;;;;;;;;;;;;15.32;100.00;99921.03;4985910;28;20434;-59
2023/08/02 02:21:24;;;;;;;;;;;;;;;15.30;100.00;99907.94;4986054;28;20156;-59
2023/08/02 02:23:50;;;;;;;;;;;;;;;15.28;100.00;99901.84;4982741;28;19918;-58
2023/08/02 02:26:15;;;;;;;;;;;;;;;15.25;100.00;99885.25;4988007;28;19913;-59
2023/08/02 02:28:40;;;;;;;;;;;;;;;15.24;100.00;99887.00;4988614;28;19922;-59
2023/08/02 02:31:05;;;;;;;;;;;;;;;15.26;100.00;99882.59;4987717;28;19913;-59
2023/08/02 02:33:31;;;;;;;;;;;;;;;15.24;100.00;99865.16;4986787;28;19918;-59
2023/08/02 02:35:56;;;;;;;;;;;;;;;15.26;100.00;99863.38;4987686;28;19913;-59
2023/08/02 02:38:21;;;;;;;;;;;;;;;15.26;100.00;99872.09;4985239;28;19914;-59
2023/08/02 02:40:46;;;;;;;;;;;;;;;15.27;100.00;99867.75;4982910;28;20073;-59
2023/08/02 02:43:13;;;;;;;;;;;;;;;15.28;100.00;99866.88;4985833;28;20327;-59
2023/08/02 02:45:38;;;;;;;;;;;;;;;15.28;100.00;99859.00;4985981;28;19921;-59
2023/08/02 02:48:03;;;;;;;;;;;;;;;15.29;100.00;99858.06;4988317;28;19914;-59
2023/08/02 02:50:31;;;;;;;;;;;;;;;15.27;100.00;99859.88;4986091;28;19925;-59
2023/08/02 02:52:56;;;;;;;;;;;;;;;15.27;100.00;99862.50;4985721;28;19917;-59
2023/08/02 02:55:21;;;;;;;;;;;;;;;15.28;100.00;99859.00;4986880;28;19914;-59
2023/08/02 02:57:50;;;;;;;;;;;;;;;15.29;100.00;99865.94;4984514;28;20403;-59
2023/08/02 03:00:16;;;;;;;;;;;;;;;15.29;100.00;99858.06;4987056;28;19913;-60
2023/08/02 03:02:41;;;;;;;;;;;;;;;15.31;100.00;99858.94;4987226;28;20292;-59
2023/08/02 03:05:06;;;;;;;;;;;;;;;15.29;100.00;99845.84;4988009;28;19922;-59
2023/08/02 03:07:33;;;;;;;;;;;;;;;15.30;100.00;99838.81;4986532;28;19917;-59
2023/08/02 03:09:58;;;;;;;;;;;;;;;15.28;100.00;99827.50;4986502;28;19956;-59
2023/08/02 03:12:23;;;;;;;;;;;;;;;15.27;100.00;99808.22;4987410;28;19964;-59
2023/08/02 03:14:49;;;;;;;;;;;;;;;15.28;100.00;99798.63;4985386;28;20304;-59
2023/08/02 03:17:17;;;;;;;;;;;;;;;15.29;100.00;99790.72;4986822;28;20303;-59
2023/08/02 03:19:42;;;;;;;;;;;;;;;15.31;100.00;99782.84;4985320;28;20383;-59
2023/08/02 03:22:07;;;;;;;;;;;;;;;15.33;100.00;99775.78;4984479;28;19913;-58
2023/08/02 03:24:32;;;;;;;;;;;;;;;15.34;100.00;99768.78;4985760;28;20149;-59
2023/08/02 03:26:58;;;;;;;;;;;;;;;15.35;100.00;99766.16;4985810;28;19929;-59
2023/08/02 03:29:26;;;;;;;;;;;;;;;15.33;100.00;99767.91;4983078;28;20454;-59
2023/08/02 03:31:52;;;;;;;;;;;;;;;15.30;100.00;99760.09;4987272;28;20712;-59
2023/08/02 03:34:17;;;;;;;;;;;;;;;15.30;100.00;99760.94;4986211;28;19964;-59
2023/08/02 03:36:42;;;;;;;;;;;;;;;15.31;100.00;99767.09;4989268;28;20161;-59
2023/08/02 03:39:08;;;;;;;;;;;;;;;15.33;100.00;99767.91;4985462;28;19914;-59
2023/08/02 03:41:33;;;;;;;;;;;;;;;15.32;100.00;99753.06;4984011;28;19917;-59
2023/08/02 03:43:59;;;;;;;;;;;;;;;15.34;100.00;99759.16;4985213;28;19918;-59
2023/08/02 03:46:27;;;;;;;;;;;;;;;15.35;100.00;99744.28;4979516;28;19914;-59
2023/08/02 03:48:52;;;;;;;;;;;;;;;15.35;100.00;99733.78;4981101;28;19924;-60
2023/08/02 03:51:17;;;;;;;;;;;;;;;15.35;100.00;99737.28;4986155;28;19914;-59
2023/08/02 03:53:42;;;;;;;;;;;;;;;15.36;100.00;99720.63;4981270;28;19906;-59
2023/08/02 03:56:07;;;;;;;;;;;;;;;15.34;100.00;99716.28;4984047;28;20032;-59
2023/08/02 03:58:33;;;;;;;;;;;;;;;15.33;100.00;99718.06;4979362;28;20600;-59
2023/08/02 04:00:58;;;;;;;;;;;;;;;15.35;100.00;99710.16;4976884;28;19960;-59
2023/08/02 04:03:23;;;;;;;;;;;;;;;15.34;100.00;99704.06;4980255;28;19921;-59
2023/08/02 04:05:48;;;;;;;;;;;;;;;15.34;100.00;99693.56;4987233;28;20120;-59
2023/08/02 04:08:14;;;;;;;;;;;;;;;15.34;100.00;99688.31;4978333;28;19945;-59
2023/08/02 04:10:39;;;;;;;;;;;;;;;15.33;100.00;99676.06;4976048;28;19976;-59
2023/08/02 04:13:04;;;;;;;;;;;;;;;15.33;100.00;99676.06;4988068;28;19913;-59
2023/08/02 04:15:33;;;;;;;;;;;;;;;15.34;100.00;99677.81;4985896;28;20287;-59
2023/08/02 04:17:58;;;;;;;;;;;;;;;15.33;100.00;99670.81;4980483;28;19945;-59
2023/08/02 04:20:23;;;;;;;;;;;;;;;15.33;100.00;99664.69;4981328;28;20414;-59
2023/08/02 04:22:49;;;;;;;;;;;;;;;15.31;100.00;99662.09;4986929;28;20415;-59
2023/08/02 04:25:15;;;;;;;;;;;;;;;15.28;100.00;99656.91;4980459;28;19949;-59
2023/08/02 04:27:40;;;;;;;;;;;;;;;15.26;100.00;99643.78;4975245;28;19913;-59
2023/08/02 04:30:06;;;;;;;;;;;;;;;15.24;100.00;99636.84;4979075;28;19922;-58
2023/08/02 04:32:31;;;;;;;;;;;;;;;15.24;100.00;99621.94;4983189;28;19925;-59
2023/08/02 04:34:57;;;;;;;;;;;;;;;15.24;100.00;99623.72;4986093;28;20372;-59
2023/08/02 04:37:22;;;;;;;;;;;;;;;15.22;100.00;99613.25;4985371;28;19914;-59
2023/08/02 04:39:47;;;;;;;;;;;;;;;15.23;100.00;99606.22;4981827;28;19913;-59
2023/08/02 04:42:14;;;;;;;;;;;;;;;15.24;100.00;99600.97;4988120;28;20060;-59
2023/08/02 04:44:40;;;;;;;;;;;;;;;15.23;100.00;99593.13;4978012;28;20299;-59
2023/08/02 04:47:05;;;;;;;;;;;;;;;15.23;100.00;99585.25;4976141;28;19914;-59
2023/08/02 04:49:30;;;;;;;;;;;;;;;15.21;100.00;99573.91;4984850;28;19918;-59
2023/08/02 04:51:55;;;;;;;;;;;;;;;15.22;100.00;99559.88;4983271;28;20360;-59
2023/08/02 04:54:21;;;;;;;;;;;;;;;15.21;100.00;99563.41;4984594;28;19913;-59
2023/08/02 04:56:46;;;;;;;;;;;;;;;15.22;100.00;99563.41;4988589;28;19914;-59
2023/08/02 04:59:13;;;;;;;;;;;;;;;15.22;100.00;99554.63;4985438;28;19953;-59
2023/08/02 05:01:38;;;;;;;;;;;;;;;15.24;100.00;99551.09;4983752;28;19918;-59
2023/08/02 05:04:03;;;;;;;;;;;;;;;15.25;100.00;99544.97;4989553;28;19920;-59
2023/08/02 05:06:29;;;;;;;;;;;;;;;15.26;100.00;99540.56;4989417;28;20414;-59
2023/08/02 05:08:54;;;;;;;;;;;;;;;15.28;100.00;99544.06;4988381;28;19936;-58
2023/08/02 05:11:20;;;;;;;;;;;;;;;15.30;100.00;99532.63;4986150;28;19921;-59
2023/08/02 05:13:45;;;;;;;;;;;;;;;15.32;100.00;99532.59;4983149;28;19915;-59
2023/08/02 05:16:13;;;;;;;;;;;;;;;15.31;100.00;99530.88;4989649;28;19921;-59
2023/08/02 05:18:39;;;;;;;;;;;;;;;15.32;100.00;99531.75;4983623;28;20387;-59
2023/08/02 05:21:11;;;;;;;;;;;;;;;15.30;100.00;99518.66;4984528;28;19918;-59
2023/08/02 05:23:36;;;;;;;;;;;;;;;15.29;100.00;99517.78;4983584;28;19910;-59
2023/08/02 05:26:07;;;;;;;;;;;;;;;15.29;100.00;99511.66;4985153;28;20116;-59
2023/08/02 05:28:33;;;;;;;;;;;;;;;15.27;100.00;99509.06;4978972;28;19941;-59
2023/08/02 05:30:59;;;;;;;;;;;;;;;15.25;100.00;99505.59;4986961;28;19913;-59
2023/08/02 05:33:24;;;;;;;;;;;;;;;15.24;100.00;99497.75;4979288;28;19922;-59
2023/08/02 05:35:49;;;;;;;;;;;;;;;15.20;100.00;99483.81;4980442;28;19924;-59
2023/08/02 05:38:14;;;;;;;;;;;;;;;15.18;100.00;99476.84;4986833;28;19922;-59
2023/08/02 05:40:39;;;;;;;;;;;;;;;15.16;100.00;99463.75;4991906;28;19979;-59
2023/08/02 05:43:06;;;;;;;;;;;;;;;15.14;100.00;99468.19;4986404;28;20387;-59
2023/08/02 05:45:31;;;;;;;;;;;;;;;15.12;100.00;99462.97;4989018;28;19913;-59
2023/08/02 05:47:57;;;;;;;;;;;;;;;15.11;100.00;99453.34;4981847;28;19914;-59
2023/08/02 05:50:22;;;;;;;;;;;;;;;15.10;100.00;99443.75;4982691;28;19918;-59
2023/08/02 05:52:47;;;;;;;;;;;;;;;15.10;100.00;99449.00;4987972;28;20352;-59
2023/08/02 05:55:13;;;;;;;;;;;;;;;15.09;100.00;99436.78;4986382;28;20473;-59
2023/08/02 05:57:38;;;;;;;;;;;;;;;15.07;100.00;99438.56;4989462;28;19956;-59
2023/08/02 06:00:03;;;;;;;;;;;;;;;15.08;100.00;99421.94;4991529;28;19922;-59
2023/08/02 06:02:28;;;;;;;;;;;;;;;15.07;100.00;99406.22;4990188;28;19920;-59
2023/08/02 06:04:54;;;;;;;;;;;;;;;15.07;100.00;99406.22;4992196;28;19917;-59
2023/08/02 06:07:20;;;;;;;;;;;;;;;15.07;100.00;99388.72;4986298;28;19917;-59
2023/08/02 06:09:48;;;;;;;;;;;;;;;15.07;100.00;99380.84;4982200;28;20211;-59
2023/08/02 06:12:15;;;;;;;;;;;;;;;15.08;100.00;99371.25;4987878;28;20372;-59
2023/08/02 06:14:40;;;;;;;;;;;;;;;15.06;100.00;99360.78;4976216;28;19913;-59
2023/08/02 06:17:05;;;;;;;;;;;;;;;15.06;100.00;99357.25;4984085;28;19917;-59
2023/08/02 06:19:31;;;;;;;;;;;;;;;15.08;100.00;99356.34;4980402;28;20384;-59
2023/08/02 06:21:56;;;;;;;;;;;;;;;15.06;100.00;99352.91;4985471;28;20331;-59
2023/08/02 06:24:21;;;;;;;;;;;;;;;15.08;100.00;99343.22;4979381;28;19917;-59
2023/08/02 06:26:47;;;;;;;;;;;;;;;15.09;100.00;99330.97;4990689;28;19924;-59
2023/08/02 06:29:12;;;;;;;;;;;;;;;15.10;100.00;99333.56;4984595;28;20008;-59
2023/08/02 06:31:37;;;;;;;;;;;;;;;15.10;100.00;99328.31;4989800;28;19913;-59
2023/08/02 06:34:02;;;;;;;;;;;;;;;15.13;100.00;99317.78;4988083;28;19925;-61
2023/08/02 06:36:34;;;;;;;;;;;;;;;15.16;100.00;99313.34;4979222;28;19925;-61
2023/08/02 06:38:59;;;;;;;;;;;;;;;15.16;100.00;99303.72;4983524;28;20095;-61
2023/08/02 06:41:24;;;;;;;;;;;;;;;15.17;100.00;99297.59;4987052;28;20103;-61
2023/08/02 06:43:50;;;;;;;;;;;;;;;15.16;100.00;99287.13;4983257;28;19924;-61
2023/08/02 06:46:15;;;;;;;;;;;;;;;15.13;100.00;99274.94;4977318;28;19914;-61
2023/08/02 06:48:40;;;;;;;;;;;;;;;15.15;100.00;99272.28;4986610;28;19949;-60
2023/08/02 06:51:09;;;;;;;;;;;;;;;15.12;100.00;99273.22;4981534;28;19997;-60
2023/08/02 06:53:34;;;;;;;;;;;;;;;15.11;100.00;99255.75;4985416;28;19917;-61
2023/08/02 06:56:08;;;;;;;;;;;;;;;15.10;100.00;99249.59;4987486;28;19984;-61
2023/08/02 06:58:34;;;;;;;;;;;;;;;15.16;100.00;99239.91;4984012;28;19913;-60
2023/08/02 07:00:59;;;;;;;;;;;;;;;15.18;100.00;99238.09;4977853;28;19909;-60
2023/08/02 07:03:24;;;;;;;;;;;;;;;15.21;100.00;99230.19;4988763;28;19953;-61
2023/08/02 07:05:50;;;;;;;;;;;;;;;15.22;100.00;99226.63;4982789;28;19961;-60
2023/08/02 07:08:18;;;;;;;;;;;;;;;15.23;100.00;99217.88;4985892;28;20017;-60
2023/08/02 07:10:43;;;;;;;;;;;;;;;15.23;100.00;99213.47;4984327;28;19924;-61
2023/08/02 07:13:08;;;;;;;;;;;;;;;15.25;100.00;99222.22;4986091;28;20020;-61
2023/08/02 07:15:33;;;;;;;;;;;;;;;15.26;100.00;99207.31;4989702;28;19984;-60
2023/08/02 07:17:58;;;;;;;;;;;;;;;15.30;100.00;99203.72;4988469;28;19914;-60
2023/08/02 07:20:24;;;;;;;;;;;;;;;15.31;100.00;99208.09;4985235;28;19918;-60
2023/08/02 07:22:49;;;;;;;;;;;;;;;15.32;100.00;99204.53;4986195;28;19956;-61
2023/08/02 07:25:14;;;;;;;;;;;;;;;15.34;100.00;99201.88;4985155;28;19917;-60
2023/08/02 07:27:41;;;;;;;;;;;;;;;15.36;100.00;99198.34;4977471;28;19914;-60
2023/08/02 07:30:06;;;;;;;;;;;;;;;15.40;100.00;99197.38;4983659;28;20012;-60
2023/08/02 07:32:31;;;;;;;;;;;;;;;15.41;100.00;99188.59;4987822;28;20009;-60
2023/08/02 07:34:57;;;;;;;;;;;;;;;15.42;100.00;99187.69;4986687;28;19913;-61
2023/08/02 07:37:22;;;;;;;;;;;;;;;15.45;100.00;99181.50;4987055;28;19964;-60
2023/08/02 07:39:47;;;;;;;;;;;;;;;15.48;100.00;99182.31;4988392;28;19913;-60
2023/08/02 07:42:13;;;;;;;;;;;;;;;15.50;100.00;99181.41;4985391;28;19914;-61
2023/08/02 07:44:38;;;;;;;;;;;;;;;15.51;100.00;99170.91;4987319;28;19964;-60
2023/08/02 07:47:04;;;;;;;;;;;;;;;15.57;100.00;99164.59;4991499;28;20336;-60
2023/08/02 07:49:29;;;;;;;;;;;;;;;15.57;100.00;99159.34;4984678;28;19918;-60
2023/08/02 07:51:55;;;;;;;;;;;;;;;15.63;100.00;99146.09;4980367;28;19976;-58
2023/08/02 07:54:20;;;;;;;;;;;;;;;15.67;100.00;99145.13;4986299;28;19991;-60
2023/08/02 07:56:45;;;;;;;;;;;;;;;15.71;100.00;99136.25;4984942;28;20423;-61
2023/08/02 07:59:13;;;;;;;;;;;;;;;15.74;100.00;99132.69;4987366;28;19918;-60
2023/08/02 08:01:40;;;;;;;;;;;;;;;15.75;100.00;99127.41;4984009;28;20000;-60
2023/08/02 08:04:07;;;;;;;;;;;;;;;15.80;100.00;99129.94;4982236;28;20064;-60
2023/08/02 08:06:32;;;;;;;;;;;;;;;15.82;100.00;99120.28;4989699;28;19944;-60
2023/08/02 08:08:58;;;;;;;;;;;;;;;15.86;100.00;99116.66;4987301;28;20016;-60
2023/08/02 08:11:29;;;;;;;;;;;;;;;15.90;100.00;99120.06;4990490;28;19965;-60
2023/08/02 08:13:55;;;;;;;;;;;;;;;15.94;100.00;99121.72;4985067;28;19918;-61
2023/08/02 08:16:20;;;;;;;;;;;;;;;15.96;100.00;99102.38;5003450;28;19917;-61
2023/08/02 08:18:54;;;;;;;;;;;;;;;16.01;100.00;99096.16;4990919;28;19921;-61
2023/08/02 08:21:31;;;;;;;;;;;;;;;16.06;100.00;99099.50;4990293;28;19968;-61
2023/08/02 08:23:56;;;;;;;;;;;;;;;16.09;100.00;99108.19;4990931;28;19917;-61
2023/08/02 08:26:30;;;;;;;;;;;;;;;16.09;100.00;99108.19;4988986;28;19917;-61
2023/08/02 08:32:28;;;;;;;;;;;;;;;16.15;100.00;99099.28;4947689;28;20265;-61
2023/08/02 08:35:28;;;;;;;;;;;;;;;16.23;100.00;99088.53;4935944;28;19993;-61
2023/08/02 08:37:54;;;;;;;;;;;;;;;16.26;100.00;99089.28;4991617;28;19913;-61
2023/08/02 08:40:21;;;;;;;;;;;;;;;16.33;100.00;99097.88;5009718;28;20000;-61
2023/08/02 08:43:06;;;;;;;;;;;;;;;;;;;;;
2023/08/02 08:45:44;;;;;;;;;;;;;;;16.43;100.00;99093.22;4991533;28;20411;-60
2023/08/02 08:48:09;;;;;;;;;;;;;;;16.50;100.00;99089.53;4992110;28;21582;-61
2023/08/02 08:50:34;;;;;;;;;;;;;;;16.56;100.00;99085.84;4992118;28;19925;-61
2023/08/02 08:53:04;;;;;;;;;;;;;;;16.65;100.00;99078.53;4994858;28;19910;-61
2023/08/02 08:55:30;;;;;;;;;;;;;;;16.72;100.00;99079.22;4992279;28;19914;-61
2023/08/02 08:57:55;;;;;;;;;;;;;;;16.79;100.00;99083.41;4994120;28;19910;-61
2023/08/02 09:00:20;;;;;;;;;;;;;;;16.89;100.00;99091.91;4994371;28;20079;-61
2023/08/02 09:02:46;;;;;;;;;;;;;;;16.96;100.00;99082.91;4994466;28;19920;-58
2023/08/02 09:05:11;;;;;;;;;;;;;;;17.03;100.00;99071.28;4992721;28;20008;-58
2023/08/02 09:07:36;;;;;;;;;;;;;;;17.08;100.00;99065.03;5007888;28;20438;-59
2023/08/02 09:10:02;;;;;;;;;;;;;;;17.19;100.00;99066.41;4978904;28;20004;-59
2023/08/02 09:12:41;;;;;;;;;;;;;;;17.30;100.00;99054.66;4986845;28;19918;-59
2023/08/02 09:15:06;;;;;;;;;;;;;;;17.44;100.00;99057.69;4986143;28;19913;-59
2023/08/02 09:17:46;;;;;;;;;;;;;;;17.52;100.00;99047.78;4973669;28;19965;-59
2023/08/02 09:20:12;;;;;;;;;;;;;;;17.55;100.00;99045.03;4974123;28;20423;-59
2023/08/02 09:22:37;;;;;;;;;;;;;;;17.63;100.00;99036.84;4974709;28;20010;-59
2023/08/02 09:25:06;;;;;;;;;;;;;;;17.71;100.00;99033.94;4974820;28;20104;-59
2023/08/02 09:27:32;;;;;;;;;;;;;;;17.81;100.00;99023.97;4980534;28;19969;-59
2023/08/02 09:29:57;;;;;;;;;;;;;;;17.88;100.00;99021.03;4974589;28;20328;-59
2023/08/02 09:32:23;;;;;;;;;;;;;;;17.97;100.00;99019.88;4974594;28;19909;-60
2023/08/02 09:34:50;;;;;;;;;;;;;;;18.00;100.00;99025.06;4973443;28;19924;-60
2023/08/02 09:37:16;;;;;;;;;;;;;;;18.08;100.00;99016.88;4973472;28;19960;-59
2023/08/02 09:39:48;;;;;;;;;;;;;;;18.15;100.00;99013.09;4973476;28;20009;-60
2023/08/02 09:42:14;;;;;;;;;;;;;;;18.18;100.00;99015.59;4979068;28;20309;-59
2023/08/02 09:44:40;;;;;;;;;;;;;;;18.21;100.00;99012.84;4989581;28;20384;-60
2023/08/02 09:47:09;;;;;;;;;;;;;;;18.30;100.00;99010.78;4973482;28;19914;-60
2023/08/02 09:49:34;;;;;;;;;;;;;;;18.35;100.00;99014.09;4973231;28;19921;-60
2023/08/02 09:51:59;;;;;;;;;;;;;;;18.43;100.00;99006.78;4980474;28;19914;-60
2023/08/02 09:54:24;;;;;;;;;;;;;;;18.57;100.00;99000.97;4973202;28;19973;-59
2023/08/02 09:56:51;;;;;;;;;;;;;;;18.69;100.00;98997.00;4973144;28;19936;-60
2023/08/02 09:59:17;;;;;;;;;;;;;;;18.80;100.00;98991.28;4975347;28;19914;-60
2023/08/02 10:01:44;;;;;;;;;;;;;;;18.87;100.00;98996.28;4973112;28;19976;-59
2023/08/02 10:04:10;;;;;;;;;;;;;;;18.97;100.00;98998.56;4982981;28;19913;-59
2023/08/02 10:06:46;;;;;;;;;;;;;;;19.04;100.00;99005.28;4987041;28;20273;-60
2023/08/02 10:09:24;;;;;;;;;;;;;;;19.09;100.00;98998.06;4973032;28;19921;-60
2023/08/02 10:11:57;;;;;;;;;;;;;;;19.11;100.00;98989.13;4972874;28;19921;-60
2023/08/02 10:14:22;;;;;;;;;;;;;;;19.17;100.00;98993.31;4972913;28;19906;-60
2023/08/02 10:16:48;;;;;;;;;;;;;;;19.38;100.00;98985.38;4972858;28;19914;-60
2023/08/02 10:19:13;;;;;;;;;;;;;;;19.57;100.00;98975.75;4976576;28;20012;-60
2023/08/02 10:21:39;;;;;;;;;;;;;;;19.72;100.00;98965.44;4987517;28;19932;-60
2023/08/02 10:24:05;;;;;;;;;;;;;;;19.74;100.00;98953.88;4985548;28;19920;-60
2023/08/02 10:26:30;;;;;;;;;;;;;;;19.76;100.00;98944.09;4975740;28;19953;-60
2023/08/02 10:28:59;;;;;;;;;;;;;;;19.92;100.00;98932.88;4981800;28;19959;-60
2023/08/02 10:31:25;;;;;;;;;;;;;;;20.14;100.00;98940.66;4991990;28;19917;-61
2023/08/02 10:33:50;;;;;;;;;;;;;;;20.29;100.00;98945.25;4952145;28;1116253;-60
2023/08/02 10:36:15;;;;;;;;;;;;;;;20.35;100.00;98936.16;4991595;28;20304;-60
2023/08/02 10:38:44;;;;;;;;;;;;;;;20.30;100.00;98943.44;4989150;28;20402;-60
2023/08/02 10:41:10;;;;;;;;;;;;;;;20.21;100.00;98939.44;4979722;28;19921;-60
2023/08/02 10:43:54;;;;;;;;;;;;;;;20.17;100.00;98927.28;4973606;28;19906;-60
2023/08/02 10:46:27;;;;;;;;;;;;;;;20.15;100.00;98911.50;4986330;28;19910;-61
2023/08/02 10:48:53;;;;;;;;;;;;;;;20.17;100.00;98919.38;4981371;28;19926;-60
2023/08/02 10:51:28;;;;;;;;;;;;;;;20.12;100.00;98924.03;4977418;28;19964;-60
2023/08/02 10:54:09;;;;;;;;;;;;;;;20.11;100.00;98930.25;4981962;28;19959;-60
2023/08/02 10:56:34;;;;;;;;;;;;;;;19.98;100.00;98936.06;4987885;28;20005;-60
2023/08/02 10:58:59;;;;;;;;;;;;;;;19.91;100.00;98916.13;4973723;28;20000;-60
2023/08/02 11:01:25;;;;;;;;;;;;;;;19.85;100.00;98897.94;4975876;28;19972;-59
2023/08/02 11:03:52;;;;;;;;;;;;;;;19.77;100.00;98886.84;4981927;28;19918;-59
2023/08/02 11:06:23;;;;;;;;;;;;;;;19.73;100.00;98893.19;4988393;28;19914;-59
2023/08/02 11:08:49;;;;;;;;;;;;;;;19.69;100.00;98881.88;4972689;28;19910;-59
2023/08/02 11:11:14;;;;;;;;;;;;;;;19.64;100.00;98894.47;4973736;28;19960;-59
2023/08/02 11:13:40;;;;;;;;;;;;;;;19.61;100.00;98907.78;4989943;28;19964;-59
2023/08/02 11:16:06;;;;;;;;;;;;;;;19.60;100.00;98909.56;4989787;28;19980;-58
2023/08/02 11:18:32;;;;;;;;;;;;;;;19.56;100.00;98905.34;4972805;28;20153;-60
2023/08/02 11:21:07;;;;;;;;;;;;;;;19.55;100.00;98897.50;4983332;28;20132;-59
2023/08/02 11:23:33;;;;;;;;;;;;;;;19.54;100.00;98901.09;4972662;28;19925;-59
2023/08/02 11:26:11;;;;;;;;;;;;;;;19.51;100.00;98907.34;4986110;28;20291;-59
2023/08/02 11:28:37;;;;;;;;;;;;;;;19.49;100.00;98919.75;4975715;28;19914;-59
2023/08/02 11:31:03;;;;;;;;;;;;;;;19.44;100.00;98927.03;4987350;28;19921;-59
2023/08/02 11:33:28;;;;;;;;;;;;;;;19.27;100.00;98904.84;4983006;28;19922;-59
2023/08/02 11:35:53;;;;;;;;;;;;;;;19.50;100.00;98903.00;4976993;28;19918;-59
2023/08/02 11:38:18;;;;;;;;;;;;;;;19.48;100.00;98906.63;4974852;28;20403;-59
2023/08/02 11:40:43;;;;;;;;;;;;;;;19.57;100.00;98895.66;4990989;28;20277;-59
2023/08/02 11:43:09;;;;;;;;;;;;;;;19.69;100.00;98888.97;4972907;28;19921;-59
2023/08/02 11:45:35;;;;;;;;;;;;;;;19.84;100.00;98888.28;4972604;28;20336;-59
2023/08/02 11:48:01;;;;;;;;;;;;;;;20.00;100.00;98884.94;4972169;28;19989;-60
2023/08/02 11:50:28;;;;;;;;;;;;;;;20.22;100.00;98883.00;4975903;28;19922;-60
2023/08/02 11:53:04;;;;;;;;;;;;;;;20.36;100.00;98879.66;4972079;28;20328;-60
2023/08/02 11:55:30;;;;;;;;;;;;;;;20.59;100.00;98883.84;4989837;28;19913;-60
2023/08/02 11:57:56;;;;;;;;;;;;;;;20.68;100.00;98890.50;4973226;28;19921;-59
2023/08/02 12:00:21;;;;;;;;;;;;;;;20.80;100.00;98889.06;4972166;28;19910;-60
2023/08/02 12:02:46;;;;;;;;;;;;;;;20.83;100.00;98900.34;4975263;28;19909;-60
2023/08/02 12:05:21;;;;;;;;;;;;;;;20.80;100.00;98894.34;4980775;28;20423;-60
2023/08/02 12:07:46;;;;;;;;;;;;;;;20.78;100.00;98891.78;4972119;28;19914;-60
2023/08/02 12:10:28;;;;;;;;;;;;;;;21.07;100.00;98886.78;4981681;28;19928;-60
2023/08/02 12:12:53;;;;;;;;;;;;;;;21.06;100.00;98879.78;4983338;28;20016;-60
2023/08/02 12:15:19;;;;;;;;;;;;;;;21.14;100.00;98885.53;4987517;28;20056;-60
2023/08/02 12:17:44;;;;;;;;;;;;;;;21.04;100.00;98880.78;4987038;28;19910;-60
2023/08/02 12:20:27;;;;;;;;;;;;;;;21.14;98.74;98879.38;4986464;28;20269;-60
2023/08/02 12:22:53;;;;;;;;;;;;;;;21.29;100.00;98880.38;4976858;28;20431;-60
2023/08/02 12:25:18;;;;;;;;;;;;;;;21.59;95.52;98875.28;4976097;28;19918;-61
2023/08/02 12:28:00;;;;;;;;;;;;;;;21.65;91.53;98880.28;4982060;28;19953;-60
2023/08/02 12:30:26;;;;;;;;;;;;;;;21.63;89.51;98878.63;4983265;28;19940;-59
2023/08/02 12:32:51;;;;;;;;;;;;;;;21.67;87.30;98881.03;4981791;28;20284;-60
2023/08/02 12:35:18;;;;;;;;;;;;;;;21.53;90.41;98883.56;4989640;28;19945;-59
2023/08/02 12:37:43;;;;;;;;;;;;;;;21.46;90.19;98882.97;4983656;28;19913;-59
2023/08/02 12:40:08;;;;;;;;;;;;;;;21.67;88.93;98875.72;4980042;28;19917;-60